sensor_id;sensor_type;location;lat;lon;timestamp;P1;durP1;ratioP1;P2;durP2;ratioP2
76380;SDS011;65202;52.520;10.528;2023-04-05T00:00:26;13.35;;;7.35;;
76380;SDS011;65202;52.520;10.528;2023-04-05T00:02:58;12.25;;;7.07;;
76380;SDS011;65202;52.520;10.528;2023-04-05T00:05:28;13.40;;;6.88;;
76380;SDS011;65202;52.520;10.528;2023-04-05T00:07:56;12.52;;;6.90;;
76380;SDS011;65202;52.520;10.528;2023-04-05T00:10:26;13.55;;;7.25;;
76380;SDS011;65202;52.520;10.528;2023-04-05T00:12:55;13.27;;;7.20;;
76380;SDS011;65202;52.520;10.528;2023-04-05T00:15:26;11.57;;;7.05;;
76380;SDS011;65202;52.520;10.528;2023-04-05T00:17:53;14.13;;;6.88;;
76380;SDS011;65202;52.520;10.528;2023-04-05T00:20:21;12.20;;;6.40;;
76380;SDS011;65202;52.520;10.528;2023-04-05T00:22:48;14.15;;;7.25;;
76380;SDS011;65202;52.520;10.528;2023-04-05T00:25:19;13.82;;;6.40;;
76380;SDS011;65202;52.520;10.528;2023-04-05T00:27:47;18.70;;;7.63;;
76380;SDS011;65202;52.520;10.528;2023-04-05T00:30:14;12.40;;;7.40;;
76380;SDS011;65202;52.520;10.528;2023-04-05T00:32:47;11.38;;;6.85;;
76380;SDS011;65202;52.520;10.528;2023-04-05T00:35:16;13.65;;;7.72;;
76380;SDS011;65202;52.520;10.528;2023-04-05T00:37:43;12.35;;;7.45;;
76380;SDS011;65202;52.520;10.528;2023-04-05T00:40:10;13.50;;;7.80;;
76380;SDS011;65202;52.520;10.528;2023-04-05T00:42:37;15.80;;;7.35;;
76380;SDS011;65202;52.520;10.528;2023-04-05T00:45:05;12.45;;;7.43;;
76380;SDS011;65202;52.520;10.528;2023-04-05T00:47:33;13.90;;;7.63;;
76380;SDS011;65202;52.520;10.528;2023-04-05T00:50:00;14.13;;;6.85;;
76380;SDS011;65202;52.520;10.528;2023-04-05T00:52:27;15.10;;;7.80;;
76380;SDS011;65202;52.520;10.528;2023-04-05T00:54:56;13.88;;;8.05;;
76380;SDS011;65202;52.520;10.528;2023-04-05T00:57:24;14.88;;;8.32;;
76380;SDS011;65202;52.520;10.528;2023-04-05T00:59:52;15.95;;;8.10;;
76380;SDS011;65202;52.520;10.528;2023-04-05T01:02:32;17.67;;;8.45;;
76380;SDS011;65202;52.520;10.528;2023-04-05T01:05:08;15.93;;;8.68;;
76380;SDS011;65202;52.520;10.528;2023-04-05T01:08:17;17.13;;;8.50;;
76380;SDS011;65202;52.520;10.528;2023-04-05T01:10:59;14.30;;;7.28;;
76380;SDS011;65202;52.520;10.528;2023-04-05T01:13:30;12.38;;;7.55;;
76380;SDS011;65202;52.520;10.528;2023-04-05T01:15:58;18.33;;;8.13;;
76380;SDS011;65202;52.520;10.528;2023-04-05T01:18:25;19.67;;;9.32;;
76380;SDS011;65202;52.520;10.528;2023-04-05T01:20:57;19.17;;;9.32;;
76380;SDS011;65202;52.520;10.528;2023-04-05T01:29:38;19.17;;;9.20;;
76380;SDS011;65202;52.520;10.528;2023-04-05T01:37:56;21.65;;;11.05;;
76380;SDS011;65202;52.520;10.528;2023-04-05T01:40:29;18.25;;;9.68;;
76380;SDS011;65202;52.520;10.528;2023-04-05T01:43:00;18.25;;;9.10;;
76380;SDS011;65202;52.520;10.528;2023-04-05T01:45:28;17.63;;;9.43;;
76380;SDS011;65202;52.520;10.528;2023-04-05T01:47:57;18.55;;;9.75;;
76380;SDS011;65202;52.520;10.528;2023-04-05T01:50:24;18.58;;;9.88;;
76380;SDS011;65202;52.520;10.528;2023-04-05T01:52:51;20.50;;;9.70;;
76380;SDS011;65202;52.520;10.528;2023-04-05T01:55:18;19.88;;;9.25;;
76380;SDS011;65202;52.520;10.528;2023-04-05T01:57:46;17.17;;;8.82;;
76380;SDS011;65202;52.520;10.528;2023-04-05T02:00:13;16.83;;;9.57;;
76380;SDS011;65202;52.520;10.528;2023-04-05T02:02:40;19.95;;;10.02;;
76380;SDS011;65202;52.520;10.528;2023-04-05T02:05:07;18.73;;;9.10;;
76380;SDS011;65202;52.520;10.528;2023-04-05T02:07:35;18.40;;;9.30;;
76380;SDS011;65202;52.520;10.528;2023-04-05T02:10:03;17.48;;;9.68;;
76380;SDS011;65202;52.520;10.528;2023-04-05T02:12:30;21.02;;;9.80;;
76380;SDS011;65202;52.520;10.528;2023-04-05T02:14:58;16.40;;;9.05;;
76380;SDS011;65202;52.520;10.528;2023-04-05T02:17:25;17.35;;;9.38;;
76380;SDS011;65202;52.520;10.528;2023-04-05T02:19:59;18.83;;;9.43;;
76380;SDS011;65202;52.520;10.528;2023-04-05T02:22:32;16.77;;;9.18;;
76380;SDS011;65202;52.520;10.528;2023-04-05T02:24:59;16.15;;;8.80;;
76380;SDS011;65202;52.520;10.528;2023-04-05T02:27:27;15.07;;;9.00;;
76380;SDS011;65202;52.520;10.528;2023-04-05T02:29:54;15.57;;;8.88;;
76380;SDS011;65202;52.520;10.528;2023-04-05T02:32:23;16.25;;;9.18;;
76380;SDS011;65202;52.520;10.528;2023-04-05T02:34:51;19.58;;;9.65;;
76380;SDS011;65202;52.520;10.528;2023-04-05T02:37:18;21.02;;;9.75;;
76380;SDS011;65202;52.520;10.528;2023-04-05T02:39:46;18.40;;;9.15;;
76380;SDS011;65202;52.520;10.528;2023-04-05T02:42:13;18.00;;;9.23;;
76380;SDS011;65202;52.520;10.528;2023-04-05T02:44:41;17.70;;;9.20;;
76380;SDS011;65202;52.520;10.528;2023-04-05T02:47:08;14.98;;;8.32;;
76380;SDS011;65202;52.520;10.528;2023-04-05T02:49:35;24.77;;;9.13;;
76380;SDS011;65202;52.520;10.528;2023-04-05T02:52:02;18.27;;;8.82;;
76380;SDS011;65202;52.520;10.528;2023-04-05T02:54:30;13.88;;;8.27;;
76380;SDS011;65202;52.520;10.528;2023-04-05T02:56:57;17.63;;;8.52;;
76380;SDS011;65202;52.520;10.528;2023-04-05T02:59:28;15.40;;;8.75;;
76380;SDS011;65202;52.520;10.528;2023-04-05T03:01:55;20.23;;;8.25;;
76380;SDS011;65202;52.520;10.528;2023-04-05T03:04:22;14.27;;;8.35;;
76380;SDS011;65202;52.520;10.528;2023-04-05T03:06:52;18.73;;;8.57;;
76380;SDS011;65202;52.520;10.528;2023-04-05T03:09:20;12.95;;;8.00;;
76380;SDS011;65202;52.520;10.528;2023-04-05T03:11:48;12.65;;;7.80;;
76380;SDS011;65202;52.520;10.528;2023-04-05T03:14:15;14.25;;;7.75;;
76380;SDS011;65202;52.520;10.528;2023-04-05T03:16:42;12.65;;;7.80;;
76380;SDS011;65202;52.520;10.528;2023-04-05T03:19:09;15.25;;;8.10;;
76380;SDS011;65202;52.520;10.528;2023-04-05T03:21:36;13.43;;;7.22;;
76380;SDS011;65202;52.520;10.528;2023-04-05T03:24:06;15.63;;;7.38;;
76380;SDS011;65202;52.520;10.528;2023-04-05T03:26:34;14.90;;;7.05;;
76380;SDS011;65202;52.520;10.528;2023-04-05T03:29:01;13.27;;;7.07;;
76380;SDS011;65202;52.520;10.528;2023-04-05T03:31:28;12.68;;;6.75;;
76380;SDS011;65202;52.520;10.528;2023-04-05T03:33:56;13.15;;;6.68;;
76380;SDS011;65202;52.520;10.528;2023-04-05T03:36:23;13.93;;;6.82;;
76380;SDS011;65202;52.520;10.528;2023-04-05T03:38:50;12.15;;;7.03;;
76380;SDS011;65202;52.520;10.528;2023-04-05T03:41:18;12.82;;;6.95;;
76380;SDS011;65202;52.520;10.528;2023-04-05T03:43:45;10.95;;;6.93;;
76380;SDS011;65202;52.520;10.528;2023-04-05T03:46:12;13.43;;;6.70;;
76380;SDS011;65202;52.520;10.528;2023-04-05T03:48:39;12.45;;;7.18;;
76380;SDS011;65202;52.520;10.528;2023-04-05T03:51:07;12.38;;;6.70;;
76380;SDS011;65202;52.520;10.528;2023-04-05T03:53:34;12.80;;;7.03;;
76380;SDS011;65202;52.520;10.528;2023-04-05T03:56:01;15.13;;;7.40;;
76380;SDS011;65202;52.520;10.528;2023-04-05T03:58:28;12.13;;;6.82;;
76380;SDS011;65202;52.520;10.528;2023-04-05T04:00:55;16.10;;;6.85;;
76380;SDS011;65202;52.520;10.528;2023-04-05T04:03:23;12.63;;;6.53;;
76380;SDS011;65202;52.520;10.528;2023-04-05T04:05:52;13.40;;;6.85;;
76380;SDS011;65202;52.520;10.528;2023-04-05T04:08:19;16.13;;;6.85;;
76380;SDS011;65202;52.520;10.528;2023-04-05T04:10:47;12.27;;;6.90;;
76380;SDS011;65202;52.520;10.528;2023-04-05T04:13:15;14.90;;;6.97;;
76380;SDS011;65202;52.520;10.528;2023-04-05T04:15:45;12.82;;;6.85;;
76380;SDS011;65202;52.520;10.528;2023-04-05T04:18:12;13.75;;;7.05;;
76380;SDS011;65202;52.520;10.528;2023-04-05T04:20:39;12.98;;;7.28;;
76380;SDS011;65202;52.520;10.528;2023-04-05T04:23:07;15.02;;;7.00;;
76380;SDS011;65202;52.520;10.528;2023-04-05T04:25:35;13.68;;;6.63;;
76380;SDS011;65202;52.520;10.528;2023-04-05T04:28:03;12.63;;;6.30;;
76380;SDS011;65202;52.520;10.528;2023-04-05T04:30:35;11.50;;;6.32;;
76380;SDS011;65202;52.520;10.528;2023-04-05T04:33:02;12.18;;;6.32;;
76380;SDS011;65202;52.520;10.528;2023-04-05T04:35:34;11.07;;;6.25;;
76380;SDS011;65202;52.520;10.528;2023-04-05T04:38:05;13.20;;;6.75;;
76380;SDS011;65202;52.520;10.528;2023-04-05T04:40:34;15.63;;;6.65;;
76380;SDS011;65202;52.520;10.528;2023-04-05T04:43:07;13.57;;;6.30;;
76380;SDS011;65202;52.520;10.528;2023-04-05T04:45:40;14.95;;;6.57;;
76380;SDS011;65202;52.520;10.528;2023-04-05T04:48:07;19.73;;;6.53;;
76380;SDS011;65202;52.520;10.528;2023-04-05T04:50:35;10.85;;;6.38;;
76380;SDS011;65202;52.520;10.528;2023-04-05T04:53:03;14.35;;;6.65;;
76380;SDS011;65202;52.520;10.528;2023-04-05T04:55:30;14.02;;;6.50;;
76380;SDS011;65202;52.520;10.528;2023-04-05T04:57:59;12.13;;;5.85;;
76380;SDS011;65202;52.520;10.528;2023-04-05T05:00:26;10.80;;;5.47;;
76380;SDS011;65202;52.520;10.528;2023-04-05T05:02:54;10.45;;;5.65;;
76380;SDS011;65202;52.520;10.528;2023-04-05T05:05:21;13.05;;;5.70;;
76380;SDS011;65202;52.520;10.528;2023-04-05T05:07:49;9.40;;;5.65;;
76380;SDS011;65202;52.520;10.528;2023-04-05T05:10:18;11.68;;;5.70;;
76380;SDS011;65202;52.520;10.528;2023-04-05T05:12:46;11.07;;;5.78;;
76380;SDS011;65202;52.520;10.528;2023-04-05T05:15:17;11.15;;;5.53;;
76380;SDS011;65202;52.520;10.528;2023-04-05T05:17:46;8.48;;;5.40;;
76380;SDS011;65202;52.520;10.528;2023-04-05T05:20:13;8.52;;;4.85;;
76380;SDS011;65202;52.520;10.528;2023-04-05T05:22:40;8.23;;;4.85;;
76380;SDS011;65202;52.520;10.528;2023-04-05T05:25:08;13.68;;;5.63;;
76380;SDS011;65202;52.520;10.528;2023-04-05T05:27:38;11.50;;;5.63;;
76380;SDS011;65202;52.520;10.528;2023-04-05T05:30:05;10.18;;;5.50;;
76380;SDS011;65202;52.520;10.528;2023-04-05T05:32:33;11.98;;;5.85;;
76380;SDS011;65202;52.520;10.528;2023-04-05T05:35:00;11.88;;;6.05;;
76380;SDS011;65202;52.520;10.528;2023-04-05T05:37:28;22.95;;;6.00;;
76380;SDS011;65202;52.520;10.528;2023-04-05T05:39:59;17.30;;;5.53;;
76380;SDS011;65202;52.520;10.528;2023-04-05T05:42:26;12.48;;;5.57;;
76380;SDS011;65202;52.520;10.528;2023-04-05T05:44:53;14.45;;;5.40;;
76380;SDS011;65202;52.520;10.528;2023-04-05T05:47:21;11.27;;;5.40;;
76380;SDS011;65202;52.520;10.528;2023-04-05T05:49:48;12.55;;;5.03;;
76380;SDS011;65202;52.520;10.528;2023-04-05T05:52:15;12.05;;;5.90;;
76380;SDS011;65202;52.520;10.528;2023-04-05T05:54:42;10.35;;;5.95;;
76380;SDS011;65202;52.520;10.528;2023-04-05T05:57:10;10.60;;;5.38;;
76380;SDS011;65202;52.520;10.528;2023-04-05T05:59:37;11.73;;;5.47;;
76380;SDS011;65202;52.520;10.528;2023-04-05T06:02:04;12.80;;;5.72;;
76380;SDS011;65202;52.520;10.528;2023-04-05T06:04:32;12.65;;;5.97;;
76380;SDS011;65202;52.520;10.528;2023-04-05T06:07:00;11.85;;;5.95;;
76380;SDS011;65202;52.520;10.528;2023-04-05T06:09:27;11.95;;;5.70;;
76380;SDS011;65202;52.520;10.528;2023-04-05T06:11:55;13.60;;;5.72;;
76380;SDS011;65202;52.520;10.528;2023-04-05T06:14:23;14.93;;;6.15;;
76380;SDS011;65202;52.520;10.528;2023-04-05T06:16:51;13.35;;;5.60;;
76380;SDS011;65202;52.520;10.528;2023-04-05T06:19:18;13.43;;;5.78;;
76380;SDS011;65202;52.520;10.528;2023-04-05T06:21:45;18.60;;;6.05;;
76380;SDS011;65202;52.520;10.528;2023-04-05T06:24:13;12.30;;;5.25;;
76380;SDS011;65202;52.520;10.528;2023-04-05T06:26:40;11.48;;;5.25;;
76380;SDS011;65202;52.520;10.528;2023-04-05T06:29:07;12.35;;;5.32;;
76380;SDS011;65202;52.520;10.528;2023-04-05T06:31:36;10.23;;;5.38;;
76380;SDS011;65202;52.520;10.528;2023-04-05T06:34:04;13.90;;;6.00;;
76380;SDS011;65202;52.520;10.528;2023-04-05T06:36:31;15.35;;;6.10;;
76380;SDS011;65202;52.520;10.528;2023-04-05T06:39:00;13.20;;;6.80;;
76380;SDS011;65202;52.520;10.528;2023-04-05T06:41:27;11.70;;;6.30;;
76380;SDS011;65202;52.520;10.528;2023-04-05T06:43:54;11.55;;;5.60;;
76380;SDS011;65202;52.520;10.528;2023-04-05T06:46:22;8.50;;;4.95;;
76380;SDS011;65202;52.520;10.528;2023-04-05T06:48:50;8.68;;;5.75;;
76380;SDS011;65202;52.520;10.528;2023-04-05T06:51:18;12.05;;;5.50;;
76380;SDS011;65202;52.520;10.528;2023-04-05T06:53:45;10.23;;;5.38;;
76380;SDS011;65202;52.520;10.528;2023-04-05T06:56:13;11.52;;;5.60;;
76380;SDS011;65202;52.520;10.528;2023-04-05T06:58:40;10.80;;;5.50;;
76380;SDS011;65202;52.520;10.528;2023-04-05T07:01:07;9.93;;;5.65;;
76380;SDS011;65202;52.520;10.528;2023-04-05T07:03:34;12.90;;;5.82;;
76380;SDS011;65202;52.520;10.528;2023-04-05T07:06:01;10.27;;;5.63;;
76380;SDS011;65202;52.520;10.528;2023-04-05T07:08:30;14.73;;;5.35;;
76380;SDS011;65202;52.520;10.528;2023-04-05T07:10:58;12.02;;;5.20;;
76380;SDS011;65202;52.520;10.528;2023-04-05T07:13:26;12.13;;;5.13;;
76380;SDS011;65202;52.520;10.528;2023-04-05T07:16:01;10.70;;;4.80;;
76380;SDS011;65202;52.520;10.528;2023-04-05T07:18:29;8.68;;;4.15;;
76380;SDS011;65202;52.520;10.528;2023-04-05T07:20:57;6.93;;;4.03;;
76380;SDS011;65202;52.520;10.528;2023-04-05T07:23:30;7.38;;;4.13;;
76380;SDS011;65202;52.520;10.528;2023-04-05T07:26:00;7.05;;;4.20;;
76380;SDS011;65202;52.520;10.528;2023-04-05T07:28:31;10.40;;;4.30;;
76380;SDS011;65202;52.520;10.528;2023-04-05T07:31:02;9.45;;;4.78;;
76380;SDS011;65202;52.520;10.528;2023-04-05T07:33:31;8.82;;;4.60;;
76380;SDS011;65202;52.520;10.528;2023-04-05T07:35:59;8.52;;;4.53;;
76380;SDS011;65202;52.520;10.528;2023-04-05T07:38:27;8.27;;;4.05;;
76380;SDS011;65202;52.520;10.528;2023-04-05T07:40:55;8.77;;;3.83;;
76380;SDS011;65202;52.520;10.528;2023-04-05T07:43:23;6.90;;;3.67;;
76380;SDS011;65202;52.520;10.528;2023-04-05T07:45:51;7.63;;;4.50;;
76380;SDS011;65202;52.520;10.528;2023-04-05T07:48:26;8.32;;;4.05;;
76380;SDS011;65202;52.520;10.528;2023-04-05T07:50:54;7.47;;;4.50;;
76380;SDS011;65202;52.520;10.528;2023-04-05T07:53:21;8.43;;;4.65;;
76380;SDS011;65202;52.520;10.528;2023-04-05T07:55:48;9.00;;;4.97;;
76380;SDS011;65202;52.520;10.528;2023-04-05T07:58:16;11.02;;;6.00;;
76380;SDS011;65202;52.520;10.528;2023-04-05T08:00:43;11.02;;;5.50;;
76380;SDS011;65202;52.520;10.528;2023-04-05T08:03:10;9.38;;;5.13;;
76380;SDS011;65202;52.520;10.528;2023-04-05T08:05:37;13.10;;;6.25;;
76380;SDS011;65202;52.520;10.528;2023-04-05T08:08:04;9.02;;;4.80;;
76380;SDS011;65202;52.520;10.528;2023-04-05T08:10:37;8.10;;;4.72;;
76380;SDS011;65202;52.520;10.528;2023-04-05T08:13:06;7.17;;;4.03;;
76380;SDS011;65202;52.520;10.528;2023-04-05T08:15:34;10.07;;;4.70;;
76380;SDS011;65202;52.520;10.528;2023-04-05T08:18:01;8.32;;;4.80;;
76380;SDS011;65202;52.520;10.528;2023-04-05T08:20:29;10.88;;;5.50;;
76380;SDS011;65202;52.520;10.528;2023-04-05T08:22:56;8.63;;;5.43;;
76380;SDS011;65202;52.520;10.528;2023-04-05T08:25:23;10.95;;;5.60;;
76380;SDS011;65202;52.520;10.528;2023-04-05T08:27:50;8.95;;;5.30;;
76380;SDS011;65202;52.520;10.528;2023-04-05T08:30:17;8.75;;;5.32;;
76380;SDS011;65202;52.520;10.528;2023-04-05T08:32:45;10.90;;;5.50;;
76380;SDS011;65202;52.520;10.528;2023-04-05T08:35:12;8.50;;;5.10;;
76380;SDS011;65202;52.520;10.528;2023-04-05T08:37:40;8.82;;;5.15;;
76380;SDS011;65202;52.520;10.528;2023-04-05T08:40:07;9.23;;;4.82;;
76380;SDS011;65202;52.520;10.528;2023-04-05T08:42:36;9.68;;;4.55;;
76380;SDS011;65202;52.520;10.528;2023-04-05T08:45:12;7.78;;;4.90;;
76380;SDS011;65202;52.520;10.528;2023-04-05T08:47:44;9.40;;;5.50;;
76380;SDS011;65202;52.520;10.528;2023-04-05T08:50:15;15.57;;;9.27;;
76380;SDS011;65202;52.520;10.528;2023-04-05T08:52:42;10.73;;;5.60;;
76380;SDS011;65202;52.520;10.528;2023-04-05T08:55:15;8.48;;;4.97;;
76380;SDS011;65202;52.520;10.528;2023-04-05T08:57:43;11.40;;;4.75;;
76380;SDS011;65202;52.520;10.528;2023-04-05T09:00:19;7.53;;;5.00;;
76380;SDS011;65202;52.520;10.528;2023-04-05T09:02:47;6.97;;;4.38;;
76380;SDS011;65202;52.520;10.528;2023-04-05T09:05:22;9.45;;;4.80;;
76380;SDS011;65202;52.520;10.528;2023-04-05T09:07:51;8.75;;;5.53;;
76380;SDS011;65202;52.520;10.528;2023-04-05T09:10:18;6.80;;;2.88;;
76380;SDS011;65202;52.520;10.528;2023-04-05T09:12:47;5.88;;;3.15;;
76380;SDS011;65202;52.520;10.528;2023-04-05T09:15:17;6.50;;;2.97;;
76380;SDS011;65202;52.520;10.528;2023-04-05T09:17:47;6.55;;;2.90;;
76380;SDS011;65202;52.520;10.528;2023-04-05T09:20:14;6.78;;;3.95;;
76380;SDS011;65202;52.520;10.528;2023-04-05T09:22:45;6.10;;;3.17;;
76380;SDS011;65202;52.520;10.528;2023-04-05T09:27:58;4.22;;;2.60;;
76380;SDS011;65202;52.520;10.528;2023-04-05T09:30:26;4.10;;;2.80;;
76380;SDS011;65202;52.520;10.528;2023-04-05T09:32:56;4.63;;;2.72;;
76380;SDS011;65202;52.520;10.528;2023-04-05T09:35:24;6.28;;;2.60;;
76380;SDS011;65202;52.520;10.528;2023-04-05T09:37:55;5.15;;;2.80;;
76380;SDS011;65202;52.520;10.528;2023-04-05T09:40:40;3.75;;;2.70;;
76380;SDS011;65202;52.520;10.528;2023-04-05T09:43:11;8.40;;;3.00;;
76380;SDS011;65202;52.520;10.528;2023-04-05T09:45:59;5.03;;;3.13;;
76380;SDS011;65202;52.520;10.528;2023-04-05T09:48:44;6.15;;;2.90;;
76380;SDS011;65202;52.520;10.528;2023-04-05T09:51:15;4.82;;;2.90;;
76380;SDS011;65202;52.520;10.528;2023-04-05T09:53:57;5.90;;;2.83;;
76380;SDS011;65202;52.520;10.528;2023-04-05T09:56:33;6.10;;;2.72;;
76380;SDS011;65202;52.520;10.528;2023-04-05T09:59:07;6.35;;;3.05;;
76380;SDS011;65202;52.520;10.528;2023-04-05T10:01:38;6.13;;;2.67;;
76380;SDS011;65202;52.520;10.528;2023-04-05T10:06:38;5.43;;;2.50;;
76380;SDS011;65202;52.520;10.528;2023-04-05T10:09:08;3.58;;;2.40;;
76380;SDS011;65202;52.520;10.528;2023-04-05T10:11:37;4.50;;;2.80;;
76380;SDS011;65202;52.520;10.528;2023-04-05T10:14:06;4.80;;;2.95;;
76380;SDS011;65202;52.520;10.528;2023-04-05T10:16:43;3.78;;;2.25;;
76380;SDS011;65202;52.520;10.528;2023-04-05T10:19:28;5.45;;;2.75;;
76380;SDS011;65202;52.520;10.528;2023-04-05T10:22:13;7.53;;;2.92;;
76380;SDS011;65202;52.520;10.528;2023-04-05T10:24:49;8.07;;;3.22;;
76380;SDS011;65202;52.520;10.528;2023-04-05T10:27:26;4.05;;;2.40;;
76380;SDS011;65202;52.520;10.528;2023-04-05T10:30:05;9.20;;;4.38;;
76380;SDS011;65202;52.520;10.528;2023-04-05T10:32:40;7.47;;;2.85;;
76380;SDS011;65202;52.520;10.528;2023-04-05T10:35:27;7.25;;;3.38;;
76380;SDS011;65202;52.520;10.528;2023-04-05T10:38:11;6.05;;;2.90;;
76380;SDS011;65202;52.520;10.528;2023-04-05T10:40:47;5.47;;;3.15;;
76380;SDS011;65202;52.520;10.528;2023-04-05T10:43:20;6.38;;;3.22;;
76380;SDS011;65202;52.520;10.528;2023-04-05T10:45:53;12.85;;;5.43;;
76380;SDS011;65202;52.520;10.528;2023-04-05T10:48:43;5.05;;;2.80;;
76380;SDS011;65202;52.520;10.528;2023-04-05T10:51:15;5.47;;;2.85;;
76380;SDS011;65202;52.520;10.528;2023-04-05T10:53:42;6.65;;;2.85;;
76380;SDS011;65202;52.520;10.528;2023-04-05T10:56:12;5.97;;;2.90;;
76380;SDS011;65202;52.520;10.528;2023-04-05T10:58:40;5.05;;;3.00;;
76380;SDS011;65202;52.520;10.528;2023-04-05T11:01:09;5.97;;;2.92;;
76380;SDS011;65202;52.520;10.528;2023-04-05T11:03:45;5.45;;;2.65;;
76380;SDS011;65202;52.520;10.528;2023-04-05T11:06:24;5.72;;;3.13;;
76380;SDS011;65202;52.520;10.528;2023-04-05T11:08:59;8.80;;;3.00;;
76380;SDS011;65202;52.520;10.528;2023-04-05T11:11:43;8.88;;;3.20;;
76380;SDS011;65202;52.520;10.528;2023-04-05T11:14:19;6.07;;;3.08;;
76380;SDS011;65202;52.520;10.528;2023-04-05T11:16:54;6.30;;;3.20;;
76380;SDS011;65202;52.520;10.528;2023-04-05T11:22:08;4.97;;;2.80;;
76380;SDS011;65202;52.520;10.528;2023-04-05T11:27:25;7.47;;;2.90;;
76380;SDS011;65202;52.520;10.528;2023-04-05T11:29:54;5.80;;;3.30;;
76380;SDS011;65202;52.520;10.528;2023-04-05T11:32:36;5.03;;;2.70;;
76380;SDS011;65202;52.520;10.528;2023-04-05T11:35:13;4.90;;;2.80;;
76380;SDS011;65202;52.520;10.528;2023-04-05T11:40:27;4.97;;;3.03;;
76380;SDS011;65202;52.520;10.528;2023-04-05T11:45:32;7.18;;;3.28;;
76380;SDS011;65202;52.520;10.528;2023-04-05T11:48:08;7.57;;;3.67;;
76380;SDS011;65202;52.520;10.528;2023-04-05T11:50:39;4.28;;;2.83;;
76380;SDS011;65202;52.520;10.528;2023-04-05T11:55:46;4.07;;;2.65;;
76380;SDS011;65202;52.520;10.528;2023-04-05T11:58:21;8.02;;;3.00;;
76380;SDS011;65202;52.520;10.528;2023-04-05T12:00:58;7.65;;;2.92;;
76380;SDS011;65202;52.520;10.528;2023-04-05T12:03:28;12.52;;;5.43;;
76380;SDS011;65202;52.520;10.528;2023-04-05T12:05:56;14.13;;;7.45;;
76380;SDS011;65202;52.520;10.528;2023-04-05T12:08:47;7.90;;;4.20;;
76380;SDS011;65202;52.520;10.528;2023-04-05T12:11:22;5.50;;;3.00;;
76380;SDS011;65202;52.520;10.528;2023-04-05T12:13:55;8.52;;;3.20;;
76380;SDS011;65202;52.520;10.528;2023-04-05T12:16:26;8.43;;;3.05;;
76380;SDS011;65202;52.520;10.528;2023-04-05T12:18:58;7.72;;;3.42;;
76380;SDS011;65202;52.520;10.528;2023-04-05T12:21:26;5.67;;;2.77;;
76380;SDS011;65202;52.520;10.528;2023-04-05T12:23:54;4.93;;;2.88;;
76380;SDS011;65202;52.520;10.528;2023-04-05T12:26:22;4.72;;;2.85;;
76380;SDS011;65202;52.520;10.528;2023-04-05T12:31:34;6.15;;;3.05;;
76380;SDS011;65202;52.520;10.528;2023-04-05T12:34:12;4.13;;;2.92;;
76380;SDS011;65202;52.520;10.528;2023-04-05T12:36:44;8.95;;;3.03;;
76380;SDS011;65202;52.520;10.528;2023-04-05T12:39:13;6.35;;;3.10;;
76380;SDS011;65202;52.520;10.528;2023-04-05T12:41:42;4.97;;;3.17;;
76380;SDS011;65202;52.520;10.528;2023-04-05T12:44:16;7.43;;;3.00;;
76380;SDS011;65202;52.520;10.528;2023-04-05T12:46:59;8.02;;;3.08;;
76380;SDS011;65202;52.520;10.528;2023-04-05T12:49:28;3.92;;;2.88;;
76380;SDS011;65202;52.520;10.528;2023-04-05T12:51:59;4.90;;;3.08;;
76380;SDS011;65202;52.520;10.528;2023-04-05T12:54:28;8.60;;;3.22;;
76380;SDS011;65202;52.520;10.528;2023-04-05T12:56:56;5.57;;;3.17;;
76380;SDS011;65202;52.520;10.528;2023-04-05T12:59:24;6.38;;;3.20;;
76380;SDS011;65202;52.520;10.528;2023-04-05T13:01:51;8.05;;;3.83;;
76380;SDS011;65202;52.520;10.528;2023-04-05T13:04:18;7.30;;;3.20;;
76380;SDS011;65202;52.520;10.528;2023-04-05T13:06:46;6.20;;;3.20;;
76380;SDS011;65202;52.520;10.528;2023-04-05T13:09:13;7.95;;;4.00;;
76380;SDS011;65202;52.520;10.528;2023-04-05T13:11:41;8.75;;;4.07;;
76380;SDS011;65202;52.520;10.528;2023-04-05T13:14:08;8.20;;;3.47;;
76380;SDS011;65202;52.520;10.528;2023-04-05T13:16:35;6.47;;;3.20;;
76380;SDS011;65202;52.520;10.528;2023-04-05T13:19:02;6.68;;;3.40;;
76380;SDS011;65202;52.520;10.528;2023-04-05T13:21:30;6.55;;;3.35;;
76380;SDS011;65202;52.520;10.528;2023-04-05T13:23:57;6.30;;;3.10;;
76380;SDS011;65202;52.520;10.528;2023-04-05T13:26:24;8.88;;;3.72;;
76380;SDS011;65202;52.520;10.528;2023-04-05T13:28:51;5.47;;;3.38;;
76380;SDS011;65202;52.520;10.528;2023-04-05T13:31:18;5.72;;;2.97;;
76380;SDS011;65202;52.520;10.528;2023-04-05T13:33:46;7.40;;;3.28;;
76380;SDS011;65202;52.520;10.528;2023-04-05T13:36:13;5.43;;;3.05;;
76380;SDS011;65202;52.520;10.528;2023-04-05T13:38:40;4.55;;;2.72;;
76380;SDS011;65202;52.520;10.528;2023-04-05T13:41:08;4.90;;;3.15;;
76380;SDS011;65202;52.520;10.528;2023-04-05T13:43:35;9.85;;;4.28;;
76380;SDS011;65202;52.520;10.528;2023-04-05T13:46:02;6.60;;;3.20;;
76380;SDS011;65202;52.520;10.528;2023-04-05T13:48:29;5.43;;;2.92;;
76380;SDS011;65202;52.520;10.528;2023-04-05T13:50:57;5.57;;;3.25;;
76380;SDS011;65202;52.520;10.528;2023-04-05T13:53:24;6.60;;;3.13;;
76380;SDS011;65202;52.520;10.528;2023-04-05T13:55:54;7.15;;;3.65;;
76380;SDS011;65202;52.520;10.528;2023-04-05T13:58:21;8.25;;;4.03;;
76380;SDS011;65202;52.520;10.528;2023-04-05T14:00:48;8.32;;;4.13;;
76380;SDS011;65202;52.520;10.528;2023-04-05T14:03:18;5.78;;;3.28;;
76380;SDS011;65202;52.520;10.528;2023-04-05T14:05:45;5.00;;;3.00;;
76380;SDS011;65202;52.520;10.528;2023-04-05T14:08:16;7.03;;;3.08;;
76380;SDS011;65202;52.520;10.528;2023-04-05T14:10:44;7.35;;;3.10;;
76380;SDS011;65202;52.520;10.528;2023-04-05T14:13:11;4.43;;;3.05;;
76380;SDS011;65202;52.520;10.528;2023-04-05T14:15:41;4.95;;;3.20;;
76380;SDS011;65202;52.520;10.528;2023-04-05T14:18:09;11.10;;;3.10;;
76380;SDS011;65202;52.520;10.528;2023-04-05T14:20:37;5.60;;;3.00;;
76380;SDS011;65202;52.520;10.528;2023-04-05T14:23:05;7.90;;;3.25;;
76380;SDS011;65202;52.520;10.528;2023-04-05T14:25:32;7.05;;;3.00;;
76380;SDS011;65202;52.520;10.528;2023-04-05T14:27:59;7.18;;;3.28;;
76380;SDS011;65202;52.520;10.528;2023-04-05T14:30:27;5.47;;;3.20;;
76380;SDS011;65202;52.520;10.528;2023-04-05T14:32:54;7.65;;;3.35;;
76380;SDS011;65202;52.520;10.528;2023-04-05T14:35:21;6.95;;;3.08;;
76380;SDS011;65202;52.520;10.528;2023-04-05T14:37:49;7.72;;;3.00;;
76380;SDS011;65202;52.520;10.528;2023-04-05T14:40:16;9.10;;;3.70;;
76380;SDS011;65202;52.520;10.528;2023-04-05T14:42:43;6.95;;;3.53;;
76380;SDS011;65202;52.520;10.528;2023-04-05T14:45:16;6.50;;;3.65;;
76380;SDS011;65202;52.520;10.528;2023-04-05T14:47:44;9.60;;;3.25;;
76380;SDS011;65202;52.520;10.528;2023-04-05T14:50:11;7.68;;;3.00;;
76380;SDS011;65202;52.520;10.528;2023-04-05T14:52:38;8.40;;;3.40;;
76380;SDS011;65202;52.520;10.528;2023-04-05T14:55:06;7.13;;;3.60;;
76380;SDS011;65202;52.520;10.528;2023-04-05T14:57:34;6.13;;;3.17;;
76380;SDS011;65202;52.520;10.528;2023-04-05T15:00:01;7.60;;;3.05;;
76380;SDS011;65202;52.520;10.528;2023-04-05T15:02:28;8.30;;;3.05;;
76380;SDS011;65202;52.520;10.528;2023-04-05T15:04:56;5.25;;;3.05;;
76380;SDS011;65202;52.520;10.528;2023-04-05T15:07:26;6.97;;;3.35;;
76380;SDS011;65202;52.520;10.528;2023-04-05T15:09:54;8.48;;;3.40;;
76380;SDS011;65202;52.520;10.528;2023-04-05T15:12:21;8.90;;;3.65;;
76380;SDS011;65202;52.520;10.528;2023-04-05T15:14:49;7.15;;;3.38;;